Mullinville, KS (67109)

12:23 PM CST on December 25, 2014 (GMT -0600)
Backyard Weather | Change Station
CLOSE
Current Station
Personal Weather Station
Location: Kinsley, KS
Elevation: 2168 ft
Nearby Weather Stations

Elev 2168 ft 37.93 °N, 99.41 °W | Updated 0 second ago

Clear
Clear
53.1 °F
Feels Like 53.1 °F
N
11.0
Wind Variable Wind from SSE
Gusts 18.0 mph

Today
High -- | Low -- °F
--% Chance of Precip.
Yesterday
High -- | Low -- °F
Precip. -- in
7:50 AM 5:25 PM
Waxing Crescent, 18% visible
Pressure 29.51 in
Visibility 10.0 miles
Clouds Clear
Dew Point 21 °F
Humidity 28%
Rainfall 0.00 in
Snow Depth Not available.
UV 3 out of 12
Pollen .10 out of 12
Air Quality Not available.
Flu Activity Not available.
METAR KDDC 251752Z AUTO 20018KT 10SM CLR 12/M06 A2951 RMK AO2 SLP993 T01221061 10122 21011 50003

More Conditions Fewer Conditions

Pressure 29.51 in
Visibility 10.0 miles
Clouds Clear
Dew Point 21 °F
Humidity 28%
Rainfall 0.00 in
Snow Depth Not available.
UV 3 out of 12
Pollen .10 out of 12
Air Quality Not available.
Flu Activity Not available.
METAR KDDC 251752Z AUTO 20018KT 10SM CLR 12/M06 A2951 RMK AO2 SLP993 T01221061 10122 21011 50003

More Conditions Fewer Conditions

10-Day Weather Forecast

Almanac

Astronomy

Dec. 25, 2014 Rise Set
Actual Time
Civil Twilight
Nautical Twilight
Astronomical Twilight
Moon
Length of Visible Light
Length of Day
Tomorrow will be .
, % of the Moon is Illuminated

Today's Extremes

State Highs State Lows

Community

WunderPhotos

Upload Photos

1,780,353 photos uploaded!

WunderBlogs® & News

Nearby

Air Quality

  Air Quality AQ Index Pollutant
Not available.

Snow Depth

Station Depth Elevation

Earthquake Activity

City Distance Mag. Time & Date
Minimum magnitude displayed is 2.5.

Coastal Water Temperatures

Place Temperature

Nearby Weather Stations